Time;durP1;ratioP1;P1;durP2;ratioP2;P2;SDS_P1;SDS_P2;PMS_P1;PMS_P2;Temp;Humidity;BMP_temperature;BMP_pressure;BME280_temperature;BME280_humidity;BME280_pressure;Samples;Min_cycle;Max_cycle;Signal;HPM_P1;HPM_P2
2023/08/26 00:00:29;;;;;;;;;;;17.60;99.90;;;;;;5133496;28;19914;-40
2023/08/26 00:02:55;;;;;;;;;;;17.60;99.90;;;;;;5133777;28;20492;-42
2023/08/26 00:05:20;;;;;;;;;;;17.50;99.90;;;;;;5133481;28;20386;-42
2023/08/26 00:07:46;;;;;;;;;;;17.50;99.90;;;;;;5133476;28;19911;-43
2023/08/26 00:10:11;;;;;;;;;;;17.40;99.90;;;;;;5134536;27;19908;-42
2023/08/26 00:12:37;;;;;;;;;;;17.40;99.90;;;;;;5137454;27;19908;-42
2023/08/26 00:15:03;;;;;;;;;;;17.30;99.90;;;;;;5137716;27;19908;-41
2023/08/26 00:17:29;;;;;;;;;;;17.30;99.90;;;;;;5137469;27;19960;-41
2023/08/26 00:19:55;;;;;;;;;;;17.20;99.90;;;;;;5137559;27;19911;-42
2023/08/26 00:22:20;;;;;;;;;;;17.20;99.90;;;;;;5137994;27;19908;-41
2023/08/26 00:24:47;;;;;;;;;;;17.10;99.90;;;;;;5137327;27;19964;-41
2023/08/26 00:27:12;;;;;;;;;;;17.10;99.90;;;;;;5137382;27;20005;-42
2023/08/26 00:29:38;;;;;;;;;;;17.00;99.90;;;;;;5132942;27;19939;-41
2023/08/26 00:32:04;;;;;;;;;;;17.00;99.90;;;;;;5134872;27;19919;-43
2023/08/26 00:34:29;;;;;;;;;;;16.90;99.90;;;;;;5134683;27;19924;-41
2023/08/26 00:36:55;;;;;;;;;;;16.90;99.90;;;;;;5117650;27;20359;-42
2023/08/26 00:39:20;;;;;;;;;;;16.90;99.90;;;;;;5117351;27;19911;-41
2023/08/26 00:41:46;;;;;;;;;;;16.90;99.90;;;;;;5131660;27;19962;-41
2023/08/26 00:44:11;;;;;;;;;;;16.90;99.90;;;;;;5123888;27;19926;-41
2023/08/26 00:46:37;;;;;;;;;;;17.00;99.90;;;;;;5120194;27;19919;-45
2023/08/26 00:49:03;;;;;;;;;;;16.90;99.90;;;;;;5121501;27;19912;-43
2023/08/26 00:51:28;;;;;;;;;;;17.00;99.90;;;;;;5131224;27;19912;-42
2023/08/26 00:53:54;;;;;;;;;;;16.90;99.90;;;;;;5122491;27;19915;-42
2023/08/26 00:56:20;;;;;;;;;;;16.90;99.90;;;;;;5126721;27;19915;-44
2023/08/26 00:58:46;;;;;;;;;;;16.90;99.90;;;;;;5121841;27;19919;-42
2023/08/26 01:01:11;;;;;;;;;;;16.90;99.90;;;;;;5136744;27;19914;-46
2023/08/26 01:03:37;;;;;;;;;;;16.90;99.90;;;;;;5136615;27;19938;-42
2023/08/26 01:06:03;;;;;;;;;;;16.90;99.90;;;;;;5136502;27;19907;-41
2023/08/26 01:08:28;;;;;;;;;;;16.90;99.90;;;;;;5136614;27;19908;-41
2023/08/26 01:11:00;;;;;;;;;;;16.90;99.90;;;;;;5136317;27;19911;-41
2023/08/26 01:13:30;;;;;;;;;;;16.90;99.90;;;;;;5136642;27;19913;-43
2023/08/26 01:15:57;;;;;;;;;;;16.80;99.90;;;;;;5136673;27;19933;-40
2023/08/26 01:18:22;;;;;;;;;;;16.80;99.90;;;;;;5116157;28;19914;-42
2023/08/26 01:20:48;;;;;;;;;;;16.80;99.90;;;;;;5115188;28;19994;-41
2023/08/26 01:23:22;;;;;;;;;;;16.80;99.90;;;;;;5115669;28;19907;-44
2023/08/26 01:25:48;;;;;;;;;;;16.80;99.90;;;;;;5115669;28;19977;-41
2023/08/26 01:28:14;;;;;;;;;;;16.80;99.90;;;;;;5115775;28;20366;-47
2023/08/26 01:30:39;;;;;;;;;;;16.70;99.90;;;;;;5115651;28;19914;-41
2023/08/26 01:33:13;;;;;;;;;;;16.70;99.90;;;;;;5117539;27;19912;-43
2023/08/26 01:35:40;;;;;;;;;;;16.70;99.90;;;;;;5128299;27;19920;-44
2023/08/26 01:38:07;;;;;;;;;;;16.60;99.90;;;;;;5114978;27;20255;-41
2023/08/26 01:40:33;;;;;;;;;;;16.60;99.90;;;;;;5116081;27;19911;-41
2023/08/26 01:43:00;;;;;;;;;;;16.60;99.90;;;;;;5132340;27;20052;-42
2023/08/26 01:45:26;;;;;;;;;;;16.60;99.90;;;;;;5131547;27;20011;-42
2023/08/26 01:47:51;;;;;;;;;;;16.50;99.90;;;;;;5126515;27;19955;-42
2023/08/26 01:50:17;;;;;;;;;;;16.50;99.90;;;;;;5115258;27;19908;-42
2023/08/26 01:52:42;;;;;;;;;;;16.50;99.90;;;;;;5118831;27;19918;-40
2023/08/26 01:55:08;;;;;;;;;;;16.50;99.90;;;;;;5116122;27;19911;-41
2023/08/26 01:57:34;;;;;;;;;;;16.40;99.90;;;;;;5115887;27;19912;-46
2023/08/26 01:59:59;;;;;;;;;;;16.40;99.90;;;;;;5130371;27;19949;-42
2023/08/26 02:02:25;;;;;;;;;;;16.40;99.90;;;;;;5130240;27;20302;-42
2023/08/26 02:04:50;;;;;;;;;;;16.40;99.90;;;;;;5135189;27;19916;-41
2023/08/26 02:07:15;;;;;;;;;;;16.30;99.90;;;;;;5122977;27;20394;-45
2023/08/26 02:09:41;;;;;;;;;;;16.30;99.90;;;;;;5129442;27;19915;-43
2023/08/26 02:12:07;;;;;;;;;;;16.30;99.90;;;;;;5129172;27;20061;-42
2023/08/26 02:14:32;;;;;;;;;;;16.20;99.90;;;;;;5134808;27;20548;-40
2023/08/26 02:16:58;;;;;;;;;;;16.20;99.90;;;;;;5126284;27;19915;-45
2023/08/26 02:19:23;;;;;;;;;;;16.30;99.90;;;;;;5114522;27;20006;-42
2023/08/26 02:21:49;;;;;;;;;;;16.20;99.90;;;;;;5121473;27;20189;-43
2023/08/26 02:24:14;;;;;;;;;;;16.20;99.90;;;;;;5129554;27;19920;-41
2023/08/26 02:26:40;;;;;;;;;;;16.20;99.90;;;;;;5127005;27;19947;-43
2023/08/26 02:29:05;;;;;;;;;;;16.30;99.90;;;;;;5135080;27;19968;-41
2023/08/26 02:31:31;;;;;;;;;;;16.30;99.90;;;;;;5134932;27;19907;-42
2023/08/26 02:33:56;;;;;;;;;;;16.20;99.90;;;;;;5134033;27;20318;-42
2023/08/26 02:36:22;;;;;;;;;;;16.20;99.90;;;;;;5134842;27;19931;-40
2023/08/26 02:38:48;;;;;;;;;;;16.30;99.90;;;;;;5134802;27;20365;-45
2023/08/26 02:41:13;;;;;;;;;;;16.30;99.90;;;;;;5134716;27;19907;-42
2023/08/26 02:43:39;;;;;;;;;;;16.30;99.90;;;;;;5134553;27;20266;-41
2023/08/26 02:46:04;;;;;;;;;;;16.30;99.90;;;;;;5134827;27;20008;-42
2023/08/26 02:48:30;;;;;;;;;;;16.30;99.90;;;;;;5134676;27;19917;-46
2023/08/26 02:50:56;;;;;;;;;;;16.20;99.90;;;;;;5134738;27;19930;-42
2023/08/26 02:53:22;;;;;;;;;;;16.20;99.90;;;;;;5133612;27;19918;-44
2023/08/26 02:55:48;;;;;;;;;;;16.10;99.90;;;;;;5129066;27;19916;-42
2023/08/26 02:58:13;;;;;;;;;;;16.10;99.90;;;;;;5125319;27;19957;-41
2023/08/26 03:00:39;;;;;;;;;;;16.10;99.90;;;;;;5132631;27;20470;-41
2023/08/26 03:03:04;;;;;;;;;;;16.10;99.90;;;;;;5122889;27;19912;-42
2023/08/26 03:05:30;;;;;;;;;;;16.10;99.90;;;;;;5113973;27;20386;-44
2023/08/26 03:07:55;;;;;;;;;;;16.20;99.90;;;;;;5122717;27;19916;-41
2023/08/26 03:10:21;;;;;;;;;;;16.20;99.90;;;;;;5131619;27;20374;-42
2023/08/26 03:12:46;;;;;;;;;;;16.20;99.90;;;;;;5120173;27;19960;-42
2023/08/26 03:15:12;;;;;;;;;;;16.20;99.90;;;;;;5134247;27;20002;-45
2023/08/26 03:17:37;;;;;;;;;;;16.20;99.90;;;;;;5128226;27;19948;-42
2023/08/26 03:20:03;;;;;;;;;;;16.20;99.90;;;;;;5113525;28;19958;-41
2023/08/26 03:22:28;;;;;;;;;;;16.20;99.90;;;;;;5127316;27;20426;-42
2023/08/26 03:24:54;;;;;;;;;;;16.10;99.90;;;;;;5113451;28;19916;-41
2023/08/26 03:27:19;;;;;;;;;;;16.10;99.90;;;;;;5127319;27;19912;-41
2023/08/26 03:29:45;;;;;;;;;;;16.10;99.90;;;;;;5128178;27;19937;-42
2023/08/26 03:32:10;;;;;;;;;;;16.00;99.90;;;;;;5127293;27;19955;-42
2023/08/26 03:34:36;;;;;;;;;;;16.00;99.90;;;;;;5118679;27;19916;-43
2023/08/26 03:37:02;;;;;;;;;;;16.00;99.90;;;;;;5133627;27;19912;-41
2023/08/26 03:39:27;;;;;;;;;;;16.00;99.90;;;;;;5116403;28;20278;-41
2023/08/26 03:41:53;;;;;;;;;;;16.00;99.90;;;;;;5125380;27;20357;-42
2023/08/26 03:44:18;;;;;;;;;;;16.00;99.90;;;;;;5131357;27;19924;-42
2023/08/26 03:46:44;;;;;;;;;;;16.00;99.90;;;;;;5133135;27;20285;-40
2023/08/26 03:49:09;;;;;;;;;;;16.00;99.90;;;;;;5120064;28;20263;-41
2023/08/26 03:51:35;;;;;;;;;;;16.00;99.90;;;;;;5122066;28;19915;-41
2023/08/26 03:54:00;;;;;;;;;;;16.00;99.90;;;;;;5121384;28;19912;-40
2023/08/26 03:56:25;;;;;;;;;;;15.90;99.90;;;;;;5114169;28;20107;-42
2023/08/26 03:58:56;;;;;;;;;;;15.90;99.90;;;;;;5130729;28;19919;-42
2023/08/26 04:01:22;;;;;;;;;;;15.90;99.90;;;;;;5120854;28;20433;-40
2023/08/26 04:03:49;;;;;;;;;;;15.90;99.90;;;;;;5121261;28;20132;-41
2023/08/26 04:06:15;;;;;;;;;;;15.80;99.90;;;;;;5125769;28;19988;-41
2023/08/26 04:08:41;;;;;;;;;;;15.70;99.90;;;;;;5119435;28;19919;-41
2023/08/26 04:11:07;;;;;;;;;;;15.70;99.90;;;;;;5131775;28;19915;-42
2023/08/26 04:13:33;;;;;;;;;;;15.70;99.90;;;;;;5127958;28;19916;-41
2023/08/26 04:16:01;;;;;;;;;;;15.60;99.90;;;;;;5112854;28;19968;-42
2023/08/26 04:18:27;;;;;;;;;;;15.60;99.90;;;;;;5118214;28;20014;-41
2023/08/26 04:20:52;;;;;;;;;;;15.60;99.90;;;;;;5115290;28;19947;-42
2023/08/26 04:23:18;;;;;;;;;;;15.60;99.90;;;;;;5132135;28;19907;-40
2023/08/26 04:25:43;;;;;;;;;;;15.60;99.90;;;;;;5113934;28;19911;-41
2023/08/26 04:28:09;;;;;;;;;;;15.60;99.90;;;;;;5129690;28;19939;-43
2023/08/26 04:30:36;;;;;;;;;;;15.70;99.90;;;;;;5133357;28;20349;-41
2023/08/26 04:33:03;;;;;;;;;;;15.60;99.90;;;;;;5133264;28;19907;-43
2023/08/26 04:35:30;;;;;;;;;;;15.70;99.90;;;;;;5133354;28;19907;-42
2023/08/26 04:37:55;;;;;;;;;;;15.60;99.90;;;;;;5133238;28;19957;-41
2023/08/26 04:40:22;;;;;;;;;;;15.60;99.90;;;;;;5133215;28;19951;-41
2023/08/26 04:42:47;;;;;;;;;;;15.60;99.90;;;;;;5133195;28;19911;-42
2023/08/26 04:45:15;;;;;;;;;;;15.60;99.90;;;;;;5132788;28;19927;-42
2023/08/26 04:47:41;;;;;;;;;;;15.60;99.90;;;;;;5133187;28;19976;-41
2023/08/26 04:50:07;;;;;;;;;;;15.60;99.90;;;;;;5133407;28;20350;-42
2023/08/26 04:52:33;;;;;;;;;;;15.50;99.90;;;;;;5132451;28;20342;-42
2023/08/26 04:54:58;;;;;;;;;;;15.50;99.90;;;;;;5130942;28;19968;-42
2023/08/26 04:57:24;;;;;;;;;;;15.50;99.90;;;;;;5133183;27;19918;-47
2023/08/26 04:59:49;;;;;;;;;;;15.60;99.90;;;;;;5117093;27;20402;-42
2023/08/26 05:02:15;;;;;;;;;;;15.60;99.90;;;;;;5135237;27;19915;-40
2023/08/26 05:04:40;;;;;;;;;;;15.60;99.90;;;;;;5118790;27;19920;-41
2023/08/26 05:07:06;;;;;;;;;;;15.60;99.90;;;;;;5116091;27;19968;-41
2023/08/26 05:09:31;;;;;;;;;;;15.60;99.90;;;;;;5131681;27;19911;-41
2023/08/26 05:11:57;;;;;;;;;;;15.60;99.90;;;;;;5135809;27;20417;-42
2023/08/26 05:14:25;;;;;;;;;;;15.60;99.90;;;;;;5122098;27;19916;-41
2023/08/26 05:16:51;;;;;;;;;;;15.60;99.90;;;;;;5115923;28;19915;-43
2023/08/26 05:19:16;;;;;;;;;;;15.60;99.90;;;;;;5121179;27;19916;-41
2023/08/26 05:21:42;;;;;;;;;;;15.60;99.90;;;;;;5115827;28;19953;-44
2023/08/26 05:24:07;;;;;;;;;;;15.60;99.90;;;;;;5122793;27;19926;-41
2023/08/26 05:26:33;;;;;;;;;;;15.60;99.90;;;;;;5127000;27;20038;-40
2023/08/26 05:28:59;;;;;;;;;;;15.70;99.90;;;;;;5125995;27;19922;-41
2023/08/26 05:31:24;;;;;;;;;;;15.70;99.90;;;;;;5118665;27;20305;-43
2023/08/26 05:33:50;;;;;;;;;;;15.60;99.90;;;;;;5129541;27;19920;-44
2023/08/26 05:36:15;;;;;;;;;;;15.70;99.90;;;;;;5115443;28;20002;-42
2023/08/26 05:38:41;;;;;;;;;;;15.70;99.90;;;;;;5122375;27;19912;-41
2023/08/26 05:41:06;;;;;;;;;;;15.80;99.90;;;;;;5116747;27;19915;-40
2023/08/26 05:43:32;;;;;;;;;;;15.80;99.90;;;;;;5117863;27;20374;-44
2023/08/26 05:45:57;;;;;;;;;;;15.90;99.90;;;;;;5134877;27;19980;-42
2023/08/26 05:48:23;;;;;;;;;;;15.90;99.90;;;;;;5130485;27;19933;-42
2023/08/26 05:50:48;;;;;;;;;;;15.90;99.90;;;;;;5116058;27;19912;-42
2023/08/26 05:53:14;;;;;;;;;;;15.90;99.90;;;;;;5122049;27;19911;-43
2023/08/26 05:55:43;;;;;;;;;;;16.00;99.90;;;;;;5135578;27;19960;-42
2023/08/26 05:58:09;;;;;;;;;;;16.00;99.90;;;;;;5135671;27;19914;-43
2023/08/26 06:00:34;;;;;;;;;;;16.00;99.90;;;;;;5131684;27;19912;-40
2023/08/26 06:03:00;;;;;;;;;;;16.00;99.90;;;;;;5131456;27;19912;-42
2023/08/26 06:05:25;;;;;;;;;;;16.10;99.90;;;;;;5123373;27;20443;-41
2023/08/26 06:07:51;;;;;;;;;;;16.10;99.90;;;;;;5127541;27;19911;-40
2023/08/26 06:10:17;;;;;;;;;;;16.00;99.90;;;;;;5133367;27;20365;-46
2023/08/26 06:12:43;;;;;;;;;;;16.10;99.90;;;;;;5135347;27;19967;-42
2023/08/26 06:15:08;;;;;;;;;;;16.10;99.90;;;;;;5124607;27;20290;-41
2023/08/26 06:17:35;;;;;;;;;;;16.10;99.90;;;;;;5124809;27;20350;-43
2023/08/26 06:20:03;;;;;;;;;;;16.10;99.90;;;;;;5118996;27;20387;-41
2023/08/26 06:22:28;;;;;;;;;;;16.10;99.90;;;;;;5119487;27;19918;-42
2023/08/26 06:24:54;;;;;;;;;;;16.10;99.90;;;;;;5134988;27;19915;-40
2023/08/26 06:27:20;;;;;;;;;;;16.10;99.90;;;;;;5135100;27;19960;-43
2023/08/26 06:29:53;;;;;;;;;;;16.10;99.90;;;;;;5134972;27;20365;-42
2023/08/26 06:32:19;;;;;;;;;;;16.10;99.90;;;;;;5134899;27;20288;-42
2023/08/26 06:34:44;;;;;;;;;;;16.10;99.90;;;;;;5134922;27;20002;-41
2023/08/26 06:37:10;;;;;;;;;;;16.10;99.90;;;;;;5135009;27;19908;-46
2023/08/26 06:39:35;;;;;;;;;;;16.20;99.90;;;;;;5134785;27;19907;-41
2023/08/26 06:42:01;;;;;;;;;;;16.20;99.90;;;;;;5134625;27;19908;-42
2023/08/26 06:44:26;;;;;;;;;;;16.20;99.90;;;;;;5134383;27;19926;-42
2023/08/26 06:46:52;;;;;;;;;;;16.20;99.90;;;;;;5134690;27;19907;-46
2023/08/26 06:49:17;;;;;;;;;;;16.30;99.90;;;;;;5134903;27;19932;-41
2023/08/26 06:51:42;;;;;;;;;;;16.30;99.90;;;;;;5134502;27;19916;-43
2023/08/26 06:54:08;;;;;;;;;;;16.40;99.90;;;;;;5129851;27;19912;-40
2023/08/26 06:56:33;;;;;;;;;;;16.40;99.90;;;;;;5121619;27;19911;-41
2023/08/26 06:58:59;;;;;;;;;;;16.40;99.90;;;;;;5124640;27;19920;-42
2023/08/26 07:01:24;;;;;;;;;;;16.40;99.90;;;;;;5119261;27;20400;-41
2023/08/26 07:03:50;;;;;;;;;;;16.50;99.90;;;;;;5123016;27;20002;-44
2023/08/26 07:06:15;;;;;;;;;;;16.50;99.90;;;;;;5118499;27;19991;-41
2023/08/26 07:08:41;;;;;;;;;;;16.40;99.90;;;;;;5130832;27;19918;-42
2023/08/26 07:11:06;;;;;;;;;;;16.50;99.90;;;;;;5129553;27;19961;-42
2023/08/26 07:13:32;;;;;;;;;;;16.50;99.90;;;;;;5117755;27;20263;-40
2023/08/26 07:15:57;;;;;;;;;;;16.50;99.90;;;;;;5113808;27;19908;-41
2023/08/26 07:18:23;;;;;;;;;;;16.50;99.90;;;;;;5133716;27;19911;-41
2023/08/26 07:20:49;;;;;;;;;;;16.60;99.90;;;;;;5132377;27;19930;-41
2023/08/26 07:23:14;;;;;;;;;;;16.60;99.90;;;;;;5131928;27;19911;-41
2023/08/26 07:25:41;;;;;;;;;;;16.60;99.90;;;;;;5125690;27;19919;-41
2023/08/26 07:28:07;;;;;;;;;;;16.60;99.90;;;;;;5116689;27;19915;-42
2023/08/26 07:30:33;;;;;;;;;;;16.60;99.90;;;;;;5132132;27;19952;-42
2023/08/26 07:32:58;;;;;;;;;;;16.60;99.90;;;;;;5128367;27;19958;-41
2023/08/26 07:35:24;;;;;;;;;;;16.60;99.90;;;;;;5121127;27;19919;-45
2023/08/26 07:37:49;;;;;;;;;;;16.60;99.90;;;;;;5128193;27;20419;-42
2023/08/26 07:40:15;;;;;;;;;;;16.60;99.90;;;;;;5132028;27;20362;-40
2023/08/26 07:42:42;;;;;;;;;;;16.70;99.90;;;;;;5121776;27;19927;-41
2023/08/26 07:45:08;;;;;;;;;;;16.70;99.90;;;;;;5114596;28;19998;-42
2023/08/26 07:47:33;;;;;;;;;;;16.80;99.90;;;;;;5123804;27;20638;-41
2023/08/26 07:49:58;;;;;;;;;;;16.80;99.90;;;;;;5133539;28;19968;-41
2023/08/26 07:52:24;;;;;;;;;;;16.90;99.90;;;;;;5128131;28;19911;-43
2023/08/26 07:54:50;;;;;;;;;;;16.90;99.90;;;;;;5127148;28;19911;-41
2023/08/26 07:57:15;;;;;;;;;;;16.80;99.90;;;;;;5133640;28;20370;-40
2023/08/26 07:59:40;;;;;;;;;;;16.80;99.90;;;;;;5133317;28;20263;-42
2023/08/26 08:02:06;;;;;;;;;;;16.70;99.90;;;;;;5133672;28;19908;-43
2023/08/26 08:04:31;;;;;;;;;;;16.70;99.90;;;;;;5118228;28;19920;-41
2023/08/26 08:06:57;;;;;;;;;;;16.70;99.90;;;;;;5122318;28;19912;-42
2023/08/26 08:09:22;;;;;;;;;;;16.60;99.90;;;;;;5131203;28;20369;-42
2023/08/26 08:11:48;;;;;;;;;;;16.60;99.90;;;;;;5133582;28;19916;-45
2023/08/26 08:14:13;;;;;;;;;;;16.60;99.90;;;;;;5115499;28;19908;-43
2023/08/26 08:16:39;;;;;;;;;;;16.60;99.90;;;;;;5119022;28;20255;-42
2023/08/26 08:19:04;;;;;;;;;;;16.60;99.90;;;;;;5113825;28;19950;-41
2023/08/26 08:21:30;;;;;;;;;;;16.60;99.90;;;;;;5123768;28;20281;-40
2023/08/26 08:23:55;;;;;;;;;;;16.60;99.90;;;;;;5131522;28;20039;-42
2023/08/26 08:26:21;;;;;;;;;;;16.70;99.90;;;;;;5131542;28;19945;-41
2023/08/26 08:28:46;;;;;;;;;;;16.90;99.90;;;;;;5131566;28;20343;-42
2023/08/26 08:31:12;;;;;;;;;;;17.00;99.90;;;;;;5126303;27;19912;-41
2023/08/26 08:33:37;;;;;;;;;;;17.10;99.90;;;;;;5117769;27;19911;-42
2023/08/26 08:36:03;;;;;;;;;;;17.20;99.90;;;;;;5120858;27;19919;-42
2023/08/26 08:38:29;;;;;;;;;;;17.20;99.90;;;;;;5125475;27;19907;-41
2023/08/26 08:40:55;;;;;;;;;;;17.40;99.90;;;;;;5137127;27;19960;-42
2023/08/26 08:43:21;;;;;;;;;;;17.60;99.90;;;;;;5135297;27;19950;-43
2023/08/26 08:45:46;;;;;;;;;;;17.80;99.90;;;;;;5133406;27;19923;-43
2023/08/26 08:48:12;;;;;;;;;;;17.90;99.90;;;;;;5117470;27;19917;-42
2023/08/26 08:50:37;;;;;;;;;;;17.80;99.90;;;;;;5133926;27;20010;-42
2023/08/26 08:53:03;;;;;;;;;;;17.70;99.90;;;;;;5126839;27;19953;-44
2023/08/26 08:55:29;;;;;;;;;;;17.70;99.90;;;;;;5118472;27;20032;-42
2023/08/26 08:57:55;;;;;;;;;;;17.70;99.90;;;;;;5122689;27;19911;-42
2023/08/26 09:00:23;;;;;;;;;;;17.90;99.90;;;;;;5136744;27;19907;-41
2023/08/26 09:02:51;;;;;;;;;;;17.90;99.90;;;;;;5130952;27;20289;-40
2023/08/26 09:05:16;;;;;;;;;;;17.90;99.90;;;;;;5119351;27;19997;-41
2023/08/26 09:07:42;;;;;;;;;;;17.80;99.90;;;;;;5116977;27;20362;-40
2023/08/26 09:10:11;;;;;;;;;;;17.80;99.90;;;;;;5115804;27;19923;-44
2023/08/26 09:12:37;;;;;;;;;;;17.70;99.90;;;;;;5127516;27;20006;-44
2023/08/26 09:15:03;;;;;;;;;;;17.70;99.90;;;;;;5132885;27;19928;-41
2023/08/26 09:17:29;;;;;;;;;;;17.70;99.90;;;;;;5121273;27;19918;-43
2023/08/26 09:19:58;;;;;;;;;;;17.70;99.90;;;;;;5115569;27;19912;-40
2023/08/26 09:22:27;;;;;;;;;;;17.80;99.90;;;;;;5127416;27;19912;-41
2023/08/26 09:24:56;;;;;;;;;;;17.90;99.90;;;;;;5127577;27;20382;-43
2023/08/26 09:27:21;;;;;;;;;;;18.10;99.90;;;;;;5124813;27;20366;-42
2023/08/26 09:29:47;;;;;;;;;;;18.30;99.90;;;;;;5121138;27;20002;-41
2023/08/26 09:32:12;;;;;;;;;;;18.30;99.90;;;;;;5115612;28;19908;-43
2023/08/26 09:34:38;;;;;;;;;;;18.40;99.90;;;;;;5115614;28;19994;-41
2023/08/26 09:37:06;;;;;;;;;;;18.30;99.90;;;;;;5115402;28;19912;-41
2023/08/26 09:39:32;;;;;;;;;;;18.30;99.90;;;;;;5115519;28;19990;-45
2023/08/26 09:41:58;;;;;;;;;;;18.40;99.90;;;;;;5115122;28;20010;-41
2023/08/26 09:44:24;;;;;;;;;;;18.40;99.90;;;;;;5116989;27;19926;-41
2023/08/26 09:46:49;;;;;;;;;;;18.40;99.90;;;;;;5121774;27;19916;-41
2023/08/26 09:49:16;;;;;;;;;;;18.60;99.90;;;;;;5135850;27;19908;-41
2023/08/26 09:51:45;;;;;;;;;;;18.80;99.90;;;;;;5135317;27;20278;-43
2023/08/26 09:54:12;;;;;;;;;;;18.90;99.90;;;;;;5135632;27;20349;-41
2023/08/26 09:56:38;;;;;;;;;;;19.00;99.90;;;;;;5132409;27;19911;-41
2023/08/26 09:59:03;;;;;;;;;;;19.30;99.90;;;;;;5127015;27;19911;-42
2023/08/26 10:01:29;;;;;;;;;;;19.40;99.90;;;;;;5130759;27;19908;-42
2023/08/26 10:04:00;;;;;;;;;;;19.50;99.90;;;;;;5135477;27;19922;-40
2023/08/26 10:06:27;;;;;;;;;;;19.70;99.90;;;;;;5129114;27;20298;-41
2023/08/26 10:08:55;;;;;;;;;;;19.70;99.90;;;;;;5135471;27;20289;-40
2023/08/26 10:11:21;;;;;;;;;;;19.70;99.90;;;;;;5131536;27;19908;-42
2023/08/26 10:13:50;;;;;;;;;;;19.70;99.90;;;;;;5123555;27;19919;-41
2023/08/26 10:16:16;;;;;;;;;;;19.80;99.90;;;;;;5133606;27;19915;-41
2023/08/26 10:18:43;;;;;;;;;;;20.00;99.90;;;;;;5135098;27;19912;-42
2023/08/26 10:21:09;;;;;;;;;;;20.30;99.90;;;;;;5126697;27;19950;-43
2023/08/26 10:23:36;;;;;;;;;;;20.50;99.90;;;;;;5135039;27;19943;-42
2023/08/26 10:26:01;;;;;;;;;;;20.50;99.90;;;;;;5135104;27;19995;-41
2023/08/26 10:28:28;;;;;;;;;;;20.50;99.90;;;;;;5135214;27;19936;-42
2023/08/26 10:30:54;;;;;;;;;;;20.40;99.90;;;;;;5135031;27;19911;-42
2023/08/26 10:33:19;;;;;;;;;;;20.30;99.90;;;;;;5134906;27;19908;-41
2023/08/26 10:36:12;;;;;;;;;;;20.30;99.90;;;;;;5134933;27;19908;-43
2023/08/26 10:38:39;;;;;;;;;;;20.40;99.90;;;;;;5134822;27;19915;-40
2023/08/26 10:41:10;;;;;;;;;;;20.40;99.90;;;;;;5134907;27;19914;-43
2023/08/26 10:43:36;;;;;;;;;;;20.50;99.90;;;;;;5134689;27;20141;-40
2023/08/26 10:46:01;;;;;;;;;;;20.60;99.90;;;;;;5134566;27;20242;-42
2023/08/26 10:48:27;;;;;;;;;;;20.70;99.90;;;;;;5134726;27;19954;-43
2023/08/26 10:51:00;;;;;;;;;;;20.50;99.90;;;;;;5134576;27;20319;-42
2023/08/26 10:53:25;;;;;;;;;;;20.30;99.90;;;;;;5122933;27;19912;-42
2023/08/26 10:55:52;;;;;;;;;;;20.20;99.90;;;;;;5114421;27;19912;-42
2023/08/26 10:58:18;;;;;;;;;;;20.00;99.90;;;;;;5121457;27;19919;-42
2023/08/26 11:00:45;;;;;;;;;;;19.80;99.90;;;;;;5113895;28;19960;-42
2023/08/26 11:03:11;;;;;;;;;;;19.60;99.90;;;;;;5115336;27;20002;-41
2023/08/26 11:05:37;;;;;;;;;;;19.70;99.90;;;;;;5120323;27;19920;-42
2023/08/26 11:08:03;;;;;;;;;;;19.90;99.90;;;;;;5123823;27;19908;-40
2023/08/26 11:10:29;;;;;;;;;;;20.00;99.90;;;;;;5113719;28;19930;-40
2023/08/26 11:12:55;;;;;;;;;;;20.10;99.90;;;;;;5120998;27;19911;-42
2023/08/26 11:15:21;;;;;;;;;;;20.10;99.90;;;;;;5134261;27;19915;-42
2023/08/26 11:17:49;;;;;;;;;;;20.30;99.90;;;;;;5119683;27;19912;-42
2023/08/26 11:20:16;;;;;;;;;;;20.30;99.90;;;;;;5113569;27;19911;-42
2023/08/26 11:22:45;;;;;;;;;;;20.30;99.90;;;;;;5114153;27;19920;-42
2023/08/26 11:25:14;;;;;;;;;;;20.30;99.90;;;;;;5113410;28;19916;-43
2023/08/26 11:27:39;;;;;;;;;;;20.40;99.90;;;;;;5113427;28;19912;-41
2023/08/26 11:30:09;;;;;;;;;;;20.60;99.90;;;;;;5113579;28;19915;-42
2023/08/26 11:32:38;;;;;;;;;;;20.60;99.90;;;;;;5113336;28;20362;-41
2023/08/26 11:35:04;;;;;;;;;;;20.60;99.90;;;;;;5113388;28;19961;-42
2023/08/26 11:37:39;;;;;;;;;;;20.40;99.90;;;;;;5113361;28;19977;-40
2023/08/26 11:40:05;;;;;;;;;;;20.40;99.90;;;;;;5104875;28;19914;-42
2023/08/26 11:42:30;;;;;;;;;;;20.30;99.90;;;;;;5113285;28;19912;-40
2023/08/26 11:44:56;;;;;;;;;;;20.40;99.90;;;;;;5113224;28;19977;-44
2023/08/26 11:47:23;;;;;;;;;;;20.40;99.90;;;;;;5113329;28;19907;-42
2023/08/26 11:49:48;;;;;;;;;;;20.40;99.90;;;;;;5113190;28;19911;-43
2023/08/26 11:52:14;;;;;;;;;;;20.30;99.90;;;;;;5118993;27;19956;-41
2023/08/26 11:54:39;;;;;;;;;;;20.20;99.90;;;;;;5127065;28;19929;-41
2023/08/26 11:57:05;;;;;;;;;;;20.20;99.90;;;;;;5125917;27;20006;-43
2023/08/26 11:59:37;;;;;;;;;;;20.30;99.90;;;;;;5118378;28;20346;-47
2023/08/26 12:02:35;;;;;;;;;;;20.50;99.90;;;;;;5118709;28;20306;-40
2023/08/26 12:05:00;;;;;;;;;;;20.60;99.90;;;;;;5086315;27;20464;-42
2023/08/26 12:07:26;;;;;;;;;;;20.70;99.90;;;;;;5136869;27;21616;-41
2023/08/26 12:09:52;;;;;;;;;;;20.70;99.90;;;;;;5129422;27;19934;-41
2023/08/26 12:12:21;;;;;;;;;;;20.80;99.90;;;;;;5128406;27;19915;-41
2023/08/26 12:14:47;;;;;;;;;;;20.90;99.90;;;;;;5117611;27;19908;-41
2023/08/26 12:17:13;;;;;;;;;;;21.10;99.90;;;;;;5133769;27;19914;-44
2023/08/26 12:19:39;;;;;;;;;;;21.20;99.90;;;;;;5136993;27;20003;-42
2023/08/26 12:22:05;;;;;;;;;;;21.30;99.90;;;;;;5135174;27;19911;-42
2023/08/26 12:24:31;;;;;;;;;;;21.20;99.90;;;;;;5135061;27;19926;-43
2023/08/26 12:27:05;;;;;;;;;;;21.10;99.90;;;;;;5133643;27;19911;-46
2023/08/26 12:29:31;;;;;;;;;;;21.30;99.90;;;;;;5132899;27;19930;-42
2023/08/26 12:31:56;;;;;;;;;;;21.40;99.90;;;;;;5120783;27;19915;-43
2023/08/26 12:34:22;;;;;;;;;;;21.30;99.90;;;;;;5130013;27;19915;-42
2023/08/26 12:36:48;;;;;;;;;;;21.20;99.90;;;;;;5124222;27;19915;-42
2023/08/26 12:39:14;;;;;;;;;;;21.00;99.90;;;;;;5123765;27;19912;-42
2023/08/26 12:41:39;;;;;;;;;;;21.00;99.90;;;;;;5131802;27;19911;-42
2023/08/26 12:44:05;;;;;;;;;;;21.10;99.90;;;;;;5109686;27;20431;-42
2023/08/26 12:46:30;;;;;;;;;;;21.00;99.90;;;;;;5125324;27;19911;-44
2023/08/26 12:48:56;;;;;;;;;;;20.90;99.90;;;;;;5136650;27;19918;-42
2023/08/26 12:51:21;;;;;;;;;;;20.70;99.90;;;;;;5135804;27;19957;-42
2023/08/26 12:53:47;;;;;;;;;;;20.60;99.90;;;;;;5132715;27;20009;-40
2023/08/26 12:56:12;;;;;;;;;;;20.50;99.90;;;;;;5132166;27;19911;-41
2023/08/26 12:58:38;;;;;;;;;;;20.50;99.90;;;;;;5131825;27;20289;-42
2023/08/26 13:01:03;;;;;;;;;;;20.50;99.90;;;;;;5120816;27;20136;-40
2023/08/26 13:03:29;;;;;;;;;;;20.50;99.90;;;;;;5121426;27;20293;-40
2023/08/26 13:05:55;;;;;;;;;;;20.50;99.90;;;;;;5128050;27;19926;-41
2023/08/26 13:08:21;;;;;;;;;;;20.50;99.90;;;;;;5122496;27;19911;-44
2023/08/26 13:10:46;;;;;;;;;;;20.50;99.90;;;;;;5126263;27;19922;-42
2023/08/26 13:13:12;;;;;;;;;;;20.60;99.90;;;;;;5136581;27;19992;-41
2023/08/26 13:15:41;;;;;;;;;;;20.60;99.90;;;;;;5134027;27;19922;-42
2023/08/26 13:18:07;;;;;;;;;;;20.70;99.90;;;;;;5127534;27;20314;-43
2023/08/26 13:20:33;;;;;;;;;;;20.80;99.90;;;;;;5123404;27;20393;-40
2023/08/26 13:22:58;;;;;;;;;;;21.10;99.90;;;;;;5119859;27;19915;-45
2023/08/26 13:25:24;;;;;;;;;;;21.30;99.90;;;;;;5123857;27;20356;-40
2023/08/26 13:27:50;;;;;;;;;;;21.50;99.90;;;;;;5123439;27;19916;-41
2023/08/26 13:30:16;;;;;;;;;;;21.50;99.90;;;;;;5119168;27;19959;-42
2023/08/26 13:32:41;;;;;;;;;;;21.40;99.90;;;;;;5121668;27;19947;-40
2023/08/26 13:35:07;;;;;;;;;;;21.40;99.90;;;;;;5123526;27;20415;-42
2023/08/26 13:37:33;;;;;;;;;;;21.60;99.90;;;;;;5121655;27;19957;-42
2023/08/26 13:39:58;;;;;;;;;;;21.60;99.90;;;;;;5123048;27;19915;-44
2023/08/26 13:42:24;;;;;;;;;;;22.20;99.90;;;;;;5123548;27;19915;-41
2023/08/26 13:44:49;;;;;;;;;;;22.40;99.90;;;;;;5121519;27;19965;-40
2023/08/26 13:47:15;;;;;;;;;;;22.70;99.90;;;;;;5118120;27;19965;-42
2023/08/26 13:49:40;;;;;;;;;;;22.60;99.90;;;;;;5134256;27;19923;-47
2023/08/26 13:52:06;;;;;;;;;;;22.40;99.90;;;;;;5123976;27;20274;-42
2023/08/26 13:54:31;;;;;;;;;;;22.20;99.90;;;;;;5125930;27;19915;-40
2023/08/26 13:56:57;;;;;;;;;;;22.00;99.90;;;;;;5134845;27;19967;-42
2023/08/26 13:59:25;;;;;;;;;;;21.80;99.90;;;;;;5124034;27;20018;-41
2023/08/26 14:01:51;;;;;;;;;;;21.60;99.90;;;;;;5119992;27;19911;-42
2023/08/26 14:04:17;;;;;;;;;;;21.50;99.90;;;;;;5127655;27;20255;-41
2023/08/26 14:06:42;;;;;;;;;;;21.40;99.90;;;;;;5120055;27;19930;-43
2023/08/26 14:09:08;;;;;;;;;;;21.30;99.90;;;;;;5133343;27;19916;-42